Accueil
METAR-TAF:

METAR-TAF

Aéroports :

Brighton, Angleterre

Aéroport de Shoreham

latitude: 50-50N, longitude: 000-17W, altitude: 2 m

Observation

Le bulletin a été fait il y a 7 heures et 13 minutes, à 18:50 UTC
Vent 3 kt de ouest
Température 11°C
Humidité 87%
Pression 1022 hPa
Visibilité 10 km ou plus
Quelques nuages à une hauteur de 3200 ft

METAR: EGKA 191850Z 28003KT 9999 FEW032 11/09 Q1022

Heure: 03:03 (02:03 UTC)

Prévision

Le bulletin a été fait il y a 12 heures et 5 minutes, à 13:58 UTC
Prévision valable du 19 à 15 UTC au 19 à 19 UTC
Vent 9 kt de ouest/sud-ouest
Visibilité 10 km ou plus
Nuages épars à une hauteur de 3000 ft

TAF: EGKA 191358Z 1915/1919 25009KT 9999 SCT030

Observations et prévisions météorologiques de plus de 4000 aéroports (messages METAR et TAF).

Les stations disponibles sont représentées par des disques jaunes et rouges sur la carte.

Passer la souris dessus pour voir le nom de la station.

Cliquer dessus pour voir les observations et prévisions météorologiques.

Pour changer de carte: cliquez sur les boutons verts avec une croix noire pour zoomer, sur le bouton vert avec un tiret pour effectuer un zoom arrière, ou sur les flèches vertes pour les cartes adjacentes.


METAR-TAF: